Time;durP1;ratioP1;P1;durP2;ratioP2;P2;SDS_P1;SDS_P2;PMS_P1;PMS_P2;Temp;Humidity;BMP_temperature;BMP_pressure;BME280_temperature;BME280_humidity;BME280_pressure;Samples;Min_cycle;Max_cycle;Signal;HPM_P1;HPM_P2
2023/05/16 00:01:53;;;;;;;13.93;7.82;;;13.70;96.70;;;;;;5030120;28;20371;-68
2023/05/16 00:04:19;;;;;;;10.75;7.78;;;13.60;97.00;;;;;;5030022;28;20037;-68
2023/05/16 00:06:44;;;;;;;12.48;8.15;;;13.70;97.00;;;;;;5030023;28;20340;-68
2023/05/16 00:09:10;;;;;;;11.65;7.93;;;13.70;97.10;;;;;;5029962;28;20036;-68
2023/05/16 00:11:35;;;;;;;12.50;8.20;;;13.50;97.40;;;;;;5030380;28;20036;-69
2023/05/16 00:14:02;;;;;;;12.30;7.85;;;13.30;97.90;;;;;;5012830;28;20358;-68
2023/05/16 00:16:29;;;;;;;12.30;7.65;;;13.40;97.70;;;;;;5029862;28;20415;-68
2023/05/16 00:18:59;;;;;;;11.23;6.57;;;13.40;97.80;;;;;;5029742;28;20039;-67
2023/05/16 00:21:25;;;;;;;10.75;7.07;;;13.50;97.80;;;;;;5029882;28;20434;-68
2023/05/16 00:23:51;;;;;;;12.27;7.53;;;13.40;98.00;;;;;;5029648;28;20014;-68
2023/05/16 00:26:18;;;;;;;15.50;8.15;;;13.30;98.10;;;;;;5012715;28;20179;-68
2023/05/16 00:28:44;;;;;;;12.55;7.38;;;13.50;97.80;;;;;;5029697;28;20041;-68
2023/05/16 00:31:09;;;;;;;12.38;8.00;;;13.60;97.80;;;;;;5029714;28;20044;-69
2023/05/16 00:33:35;;;;;;;12.20;7.68;;;13.50;98.00;;;;;;5033363;28;20041;-69
2023/05/16 00:36:00;;;;;;;12.38;7.90;;;13.50;98.00;;;;;;5016176;28;20444;-68
2023/05/16 00:38:26;;;;;;;18.30;8.60;;;13.60;97.90;;;;;;5034035;28;20095;-68
2023/05/16 00:40:52;;;;;;;17.08;9.05;;;13.60;97.90;;;;;;5033740;28;20026;-69
2023/05/16 00:43:17;;;;;;;14.27;8.60;;;13.50;98.10;;;;;;5033592;28;20042;-67
2023/05/16 00:45:44;;;;;;;11.65;8.35;;;13.60;98.00;;;;;;5033342;28;20049;-68
2023/05/16 00:48:12;;;;;;;14.10;8.95;;;13.40;98.10;;;;;;5033317;28;20305;-68
2023/05/16 00:50:38;;;;;;;13.73;8.35;;;13.50;98.30;;;;;;5033770;28;20109;-70
2023/05/16 00:53:04;;;;;;;11.85;7.60;;;13.50;98.00;;;;;;5033397;28;20364;-69
2023/05/16 00:55:31;;;;;;;12.35;6.38;;;13.60;97.80;;;;;;5033279;28;20541;-67
2023/05/16 00:57:58;;;;;;;11.70;6.65;;;13.50;97.90;;;;;;5033145;28;20037;-68
2023/05/16 01:00:24;;;;;;;9.70;6.07;;;13.40;98.00;;;;;;5033263;28;20107;-69
2023/05/16 01:02:52;;;;;;;8.15;5.15;;;13.20;98.20;;;;;;5032854;28;20286;-69
2023/05/16 01:05:19;;;;;;;8.98;4.32;;;13.30;98.10;;;;;;5033387;28;20230;-68
2023/05/16 01:07:45;;;;;;;5.93;3.43;;;13.50;97.80;;;;;;5015743;28;20059;-68
2023/05/16 01:10:11;;;;;;;4.68;3.38;;;13.40;97.70;;;;;;5032917;28;20018;-68
2023/05/16 01:13:00;;;;;;;12.10;3.25;;;13.30;97.70;;;;;;5032857;28;20099;-68
2023/05/16 01:15:33;;;;;;;4.70;2.72;;;13.40;97.70;;;;;;5032764;28;20025;-68
2023/05/16 01:18:14;;;;;;;5.28;2.67;;;13.30;97.80;;;;;;5032684;28;20087;-66
2023/05/16 01:21:10;;;;;;;8.88;2.78;;;13.30;97.90;;;;;;5033128;28;20040;-69
2023/05/16 01:24:02;;;;;;;9.27;2.63;;;13.30;98.10;;;;;;5029606;28;20057;-68
2023/05/16 01:26:29;;;;;;;9.23;2.78;;;13.30;97.90;;;;;;5032503;28;20033;-69
2023/05/16 01:28:55;;;;;;;3.75;2.60;;;13.50;97.70;;;;;;5032594;28;20029;-69
2023/05/16 01:31:22;;;;;;;7.97;2.60;;;13.30;97.90;;;;;;5032320;28;20048;-67
2023/05/16 01:33:48;;;;;;;6.00;2.70;;;13.30;98.10;;;;;;5032519;28;20030;-68
2023/05/16 01:36:46;;;;;;;5.75;2.80;;;13.20;98.10;;;;;;5032134;28;20029;-68
2023/05/16 01:39:40;;;;;;;6.22;3.85;;;13.40;98.00;;;;;;5032563;28;20116;-68
2023/05/16 01:42:13;;;;;;;6.95;3.50;;;13.30;98.00;;;;;;5032153;28;20323;-69
2023/05/16 01:45:07;;;;;;;5.50;3.55;;;13.40;97.90;;;;;;5031802;28;20041;-68
2023/05/16 01:47:38;;;;;;;7.20;4.30;;;13.30;98.20;;;;;;5032247;28;20098;-69
2023/05/16 01:50:18;;;;;;;8.02;4.10;;;13.30;98.20;;;;;;5032304;28;20033;-69
2023/05/16 01:52:47;;;;;;;6.65;4.65;;;13.50;97.90;;;;;;5032220;28;20105;-69
2023/05/16 01:55:22;;;;;;;10.70;4.55;;;13.40;97.90;;;;;;5032061;28;20037;-68
2023/05/16 01:57:49;;;;;;;14.52;4.22;;;13.40;97.90;;;;;;5032058;28;20033;-69
2023/05/16 02:00:15;;;;;;;13.52;4.63;;;13.50;97.80;;;;;;5014556;28;20029;-68
2023/05/16 02:02:40;;;;;;;7.13;4.15;;;13.40;97.70;;;;;;5032458;28;20514;-68
2023/05/16 02:05:06;;;;;;;7.60;3.50;;;13.30;97.80;;;;;;5031966;28;20057;-68
2023/05/16 02:07:33;;;;;;;10.35;3.60;;;13.30;97.80;;;;;;5031967;28;20026;-68
2023/05/16 02:09:59;;;;;;;9.35;3.55;;;13.20;98.00;;;;;;5014379;28;20045;-69
2023/05/16 02:12:24;;;;;;;9.57;3.20;;;13.20;98.20;;;;;;5031659;28;20027;-69
2023/05/16 02:14:50;;;;;;;11.05;3.60;;;13.30;97.80;;;;;;5031620;28;20086;-69
2023/05/16 02:17:16;;;;;;;8.07;3.13;;;13.20;97.60;;;;;;5032267;28;20068;-68
2023/05/16 02:19:41;;;;;;;6.82;2.90;;;13.20;97.80;;;;;;5031535;28;20041;-69
2023/05/16 02:22:07;;;;;;;7.18;3.75;;;13.10;97.90;;;;;;5031611;28;20040;-68
2023/05/16 02:24:33;;;;;;;5.97;3.25;;;13.10;98.00;;;;;;5031306;28;20042;-69
2023/05/16 02:26:58;;;;;;;8.95;3.83;;;13.10;98.20;;;;;;5031375;28;20530;-68
2023/05/16 02:29:24;;;;;;;10.07;3.97;;;13.10;98.40;;;;;;5031850;28;20033;-68
2023/05/16 02:31:50;;;;;;;5.88;3.17;;;13.20;98.40;;;;;;5031395;28;20033;-69
2023/05/16 02:34:15;;;;;;;10.65;3.63;;;13.20;98.50;;;;;;5031261;28;20100;-69
2023/05/16 02:36:41;;;;;;;8.80;3.70;;;13.10;98.60;;;;;;5031336;28;20368;-69
2023/05/16 02:39:08;;;;;;;9.32;3.75;;;13.20;98.40;;;;;;5013920;28;20194;-70
2023/05/16 02:41:34;;;;;;;7.65;3.80;;;13.10;98.70;;;;;;5032079;28;20103;-68
2023/05/16 02:44:00;;;;;;;7.47;3.92;;;12.90;99.20;;;;;;5031360;28;20080;-69
2023/05/16 02:46:31;;;;;;;11.02;4.07;;;12.90;99.90;;;;;;5031202;28;20052;-69
2023/05/16 02:48:57;;;;;;;12.48;3.95;;;12.70;99.90;;;;;;5020726;28;20484;-69
2023/05/16 02:51:25;;;;;;;10.73;4.05;;;12.80;99.90;;;;;;5030540;28;20050;-68
2023/05/16 02:53:52;;;;;;;10.45;4.07;;;12.80;99.90;;;;;;5030885;28;20451;-69
2023/05/16 02:56:18;;;;;;;10.10;4.25;;;12.90;99.90;;;;;;5031376;28;20367;-69
2023/05/16 02:58:47;;;;;;;7.70;3.85;;;13.10;99.90;;;;;;5030885;28;20051;-68
2023/05/16 03:01:13;;;;;;;8.00;3.95;;;12.90;99.90;;;;;;5030980;28;20061;-69
2023/05/16 03:03:38;;;;;;;9.00;3.95;;;12.80;99.90;;;;;;5030651;28;20057;-69
2023/05/16 03:06:05;;;;;;;11.27;3.80;;;12.90;99.90;;;;;;5030645;28;20041;-69
2023/05/16 03:08:31;;;;;;;11.82;4.47;;;12.60;99.90;;;;;;5031164;28;20025;-69
2023/05/16 03:10:56;;;;;;;9.48;4.10;;;12.60;99.90;;;;;;5030700;28;20032;-69
2023/05/16 03:13:22;;;;;;;9.75;3.45;;;12.70;99.90;;;;;;5030527;28;20026;-69
2023/05/16 03:15:48;;;;;;;9.13;3.70;;;12.80;99.90;;;;;;5030617;28;20422;-68
2023/05/16 03:18:14;;;;;;;10.45;3.45;;;12.60;99.90;;;;;;5030249;28;20146;-68
2023/05/16 03:20:40;;;;;;;14.45;3.63;;;12.70;99.90;;;;;;5030782;28;20095;-70
2023/05/16 03:23:07;;;;;;;11.63;3.40;;;12.70;99.90;;;;;;5030322;28;20029;-69
2023/05/16 03:25:36;;;;;;;13.32;3.50;;;12.70;99.90;;;;;;5029914;28;20025;-69
2023/05/16 03:28:02;;;;;;;13.85;3.25;;;12.60;99.90;;;;;;5030314;28;20037;-69
2023/05/16 03:30:28;;;;;;;6.18;2.60;;;12.60;99.90;;;;;;5029798;28;20033;-69
2023/05/16 03:32:54;;;;;;;11.63;2.83;;;12.70;99.90;;;;;;5030024;28;20463;-70
2023/05/16 03:35:20;;;;;;;10.93;2.60;;;12.70;99.90;;;;;;5030617;28;20113;-69
2023/05/16 03:37:46;;;;;;;9.18;2.40;;;12.70;99.90;;;;;;5030118;28;20127;-70
2023/05/16 03:40:12;;;;;;;9.38;3.70;;;12.70;99.90;;;;;;5029942;28;20475;-70
2023/05/16 03:42:37;;;;;;;12.15;2.50;;;12.80;99.90;;;;;;5030107;28;20029;-69
2023/05/16 03:45:07;;;;;;;11.18;2.67;;;12.80;99.80;;;;;;5029714;28;20091;-69
2023/05/16 03:47:32;;;;;;;9.57;2.30;;;12.80;99.50;;;;;;5030836;28;20013;-69
2023/05/16 03:49:58;;;;;;;15.32;2.70;;;12.80;99.50;;;;;;5030098;28;20452;-69
2023/05/16 03:52:24;;;;;;;18.33;2.63;;;12.70;99.70;;;;;;5030298;28;20124;-69
2023/05/16 03:54:49;;;;;;;7.68;2.00;;;12.60;99.80;;;;;;5012516;28;20040;-69
2023/05/16 03:57:15;;;;;;;11.32;2.08;;;12.70;99.70;;;;;;5029870;28;20427;-69
2023/05/16 03:59:41;;;;;;;9.23;2.63;;;12.60;99.40;;;;;;5030254;28;20064;-68
2023/05/16 04:02:07;;;;;;;6.90;1.90;;;12.70;99.30;;;;;;5029911;28;20030;-70
2023/05/16 04:04:33;;;;;;;16.75;2.20;;;12.70;99.30;;;;;;5029771;28;20044;-69
2023/05/16 04:06:59;;;;;;;10.82;2.28;;;12.60;99.30;;;;;;5030739;28;20037;-68
2023/05/16 04:09:25;;;;;;;16.70;2.20;;;12.60;99.30;;;;;;5033976;28;20474;-70
2023/05/16 04:11:50;;;;;;;5.32;2.00;;;12.60;99.30;;;;;;5033857;28;20045;-68
2023/05/16 04:14:16;;;;;;;14.05;2.55;;;12.60;99.30;;;;;;5034291;28;20376;-70
2023/05/16 04:16:42;;;;;;;11.75;2.13;;;12.70;99.10;;;;;;5033738;28;20029;-70
2023/05/16 04:19:08;;;;;;;7.85;2.17;;;12.80;98.90;;;;;;5033688;28;20368;-70
2023/05/16 04:21:35;;;;;;;14.55;2.33;;;12.70;99.00;;;;;;5033733;28;20037;-69
2023/05/16 04:24:01;;;;;;;10.98;2.65;;;12.50;99.20;;;;;;5033582;28;20033;-69
2023/05/16 04:26:26;;;;;;;10.27;2.35;;;12.40;99.20;;;;;;5034073;28;20044;-69
2023/05/16 04:28:52;;;;;;;11.77;3.15;;;12.30;99.60;;;;;;5033715;28;20025;-70
2023/05/16 04:31:18;;;;;;;12.40;2.70;;;12.40;99.70;;;;;;5033455;28;20041;-69
2023/05/16 04:33:44;;;;;;;10.15;2.42;;;12.60;99.10;;;;;;5033504;28;20048;-69
2023/05/16 04:36:10;;;;;;;17.05;2.70;;;12.50;98.80;;;;;;5033459;28;20052;-68
2023/05/16 04:38:36;;;;;;;11.63;2.30;;;12.50;98.80;;;;;;5016307;28;20444;-68
2023/05/16 04:41:02;;;;;;;15.52;2.63;;;12.40;98.90;;;;;;5033595;28;20335;-67
2023/05/16 04:43:29;;;;;;;14.25;2.53;;;12.40;98.70;;;;;;5033279;28;20044;-68
2023/05/16 04:45:54;;;;;;;20.30;2.40;;;12.50;98.70;;;;;;5033192;28;20455;-69
2023/05/16 04:48:20;;;;;;;16.75;2.35;;;12.40;98.70;;;;;;5033379;28;20103;-69
2023/05/16 04:50:46;;;;;;;12.23;2.50;;;12.30;98.60;;;;;;5033845;28;20351;-69
2023/05/16 04:53:13;;;;;;;11.60;2.45;;;12.30;98.60;;;;;;5033360;28;20029;-69
2023/05/16 04:55:39;;;;;;;19.77;2.55;;;12.50;98.10;;;;;;5033551;28;20242;-69
2023/05/16 04:58:05;;;;;;;19.48;3.50;;;12.60;97.70;;;;;;5015650;28;20161;-70
2023/05/16 05:00:31;;;;;;;14.00;2.38;;;12.50;97.40;;;;;;5015642;28;20032;-69
2023/05/16 05:02:57;;;;;;;15.75;2.15;;;12.40;97.60;;;;;;5032935;28;20120;-69
2023/05/16 05:05:22;;;;;;;18.23;2.45;;;12.50;97.60;;;;;;5033380;28;20032;-66
2023/05/16 05:07:48;;;;;;;17.38;2.72;;;12.50;98.00;;;;;;5033004;28;20030;-67
2023/05/16 05:10:14;;;;;;;14.43;2.35;;;12.70;99.20;;;;;;5032958;28;20036;-67
2023/05/16 05:12:39;;;;;;;23.27;2.72;;;12.90;98.80;;;;;;5032881;28;20030;-66
2023/05/16 05:15:06;;;;;;;6.57;1.60;;;12.80;98.10;;;;;;5015368;28;20340;-67
2023/05/16 05:17:31;;;;;;;15.90;2.28;;;13.00;98.60;;;;;;5033039;28;20030;-67
2023/05/16 05:19:57;;;;;;;17.27;2.40;;;13.00;97.30;;;;;;5031560;28;20026;-67
2023/05/16 05:22:23;;;;;;;20.95;2.05;;;13.10;97.00;;;;;;5033013;28;20534;-67
2023/05/16 05:24:48;;;;;;;19.25;2.38;;;13.00;96.20;;;;;;5032536;28;20041;-68
2023/05/16 05:27:14;;;;;;;21.15;2.42;;;12.80;96.60;;;;;;5014924;28;20490;-68
2023/05/16 05:29:40;;;;;;;22.40;2.80;;;12.80;96.20;;;;;;5033447;28;20164;-71
2023/05/16 05:32:07;;;;;;;17.45;2.40;;;12.90;96.00;;;;;;5032319;28;20124;-69
2023/05/16 05:34:33;;;;;;;15.95;2.97;;;12.90;95.50;;;;;;5032356;28;20449;-70
2023/05/16 05:36:59;;;;;;;27.70;3.00;;;12.90;95.20;;;;;;5032443;28;20094;-69
2023/05/16 05:39:25;;;;;;;15.60;2.35;;;12.80;95.10;;;;;;5032603;28;20033;-70
2023/05/16 05:41:50;;;;;;;14.77;2.30;;;12.90;94.90;;;;;;5032433;28;20444;-69
2023/05/16 05:44:16;;;;;;;15.80;2.20;;;12.90;94.70;;;;;;5015144;28;20034;-70
2023/05/16 05:46:42;;;;;;;16.23;2.20;;;12.90;94.40;;;;;;5028393;28;20116;-68
2023/05/16 05:49:08;;;;;;;21.00;2.08;;;13.00;94.40;;;;;;5011342;28;20531;-69
2023/05/16 05:51:34;;;;;;;18.35;2.38;;;12.90;94.30;;;;;;5012310;28;20036;-68
2023/05/16 05:54:00;;;;;;;16.05;2.28;;;12.80;94.40;;;;;;4994608;28;20022;-68
2023/05/16 05:56:26;;;;;;;19.50;2.70;;;12.90;94.30;;;;;;5011668;28;20052;-69
2023/05/16 05:58:52;;;;;;;18.27;2.90;;;12.80;94.00;;;;;;5012203;28;20487;-69
2023/05/16 06:01:19;;;;;;;10.38;1.95;;;12.70;94.00;;;;;;5012222;28;20476;-67
2023/05/16 06:03:45;;;;;;;15.00;2.22;;;12.80;94.10;;;;;;5012104;28;20069;-68
2023/05/16 06:06:11;;;;;;;16.33;2.00;;;12.80;94.20;;;;;;5012180;28;20144;-69
2023/05/16 06:08:37;;;;;;;11.68;2.35;;;12.50;94.30;;;;;;5012545;28;20420;-69
2023/05/16 06:11:02;;;;;;;20.38;2.60;;;12.60;94.40;;;;;;5012094;28;20180;-69
2023/05/16 06:13:28;;;;;;;16.17;3.13;;;12.80;94.30;;;;;;5012236;28;20040;-69
2023/05/16 06:15:54;;;;;;;13.57;3.25;;;12.80;94.10;;;;;;5002980;28;20535;-70
2023/05/16 06:18:20;;;;;;;17.38;2.33;;;12.90;94.10;;;;;;4992344;28;20057;-68
2023/05/16 06:20:46;;;;;;;15.88;2.83;;;13.10;93.90;;;;;;4992609;28;20077;-68
2023/05/16 06:23:12;;;;;;;18.45;2.30;;;13.20;93.60;;;;;;4991108;28;20472;-67
2023/05/16 06:25:38;;;;;;;22.35;2.60;;;13.30;93.80;;;;;;4992131;28;20040;-69
2023/05/16 06:28:03;;;;;;;23.40;3.08;;;13.40;93.30;;;;;;4992246;28;20114;-69
2023/05/16 06:30:29;;;;;;;17.38;2.17;;;13.20;92.80;;;;;;4991820;28;20488;-68
2023/05/16 06:32:55;;;;;;;19.05;2.95;;;12.80;93.60;;;;;;4992023;28;20041;-68
2023/05/16 06:35:21;;;;;;;14.55;2.28;;;13.10;93.30;;;;;;4992423;28;20030;-67
2023/05/16 06:37:47;;;;;;;14.93;2.50;;;13.40;93.20;;;;;;4991963;28;20271;-68
2023/05/16 06:40:13;;;;;;;14.00;2.35;;;13.50;92.70;;;;;;4992101;28;20062;-67
2023/05/16 06:42:38;;;;;;;9.93;1.77;;;13.30;92.30;;;;;;4991935;28;20046;-69
2023/05/16 06:45:05;;;;;;;16.95;2.67;;;13.30;92.00;;;;;;4991840;28;20038;-68
2023/05/16 06:47:31;;;;;;;20.40;2.45;;;13.10;91.60;;;;;;4992226;28;20014;-68
2023/05/16 06:49:57;;;;;;;13.00;1.45;;;13.10;91.50;;;;;;4991764;28;20037;-67
2023/05/16 06:52:22;;;;;;;8.13;1.40;;;13.20;91.70;;;;;;4991881;28;20039;-68
2023/05/16 06:54:48;;;;;;;13.75;1.90;;;12.90;91.30;;;;;;4991810;28;20046;-69
2023/05/16 06:57:13;;;;;;;19.00;2.60;;;13.00;91.70;;;;;;4991732;28;20342;-67
2023/05/16 06:59:39;;;;;;;15.55;2.55;;;13.00;91.60;;;;;;4992191;28;20034;-67
2023/05/16 07:02:06;;;;;;;18.77;3.17;;;13.10;91.40;;;;;;4991692;28;20041;-68
2023/05/16 07:04:31;;;;;;;12.93;1.95;;;13.40;91.20;;;;;;4990625;28;20041;-68
2023/05/16 07:06:57;;;;;;;17.85;1.92;;;13.50;90.70;;;;;;4991654;28;20026;-68
2023/05/16 07:09:23;;;;;;;12.30;1.75;;;13.40;90.30;;;;;;4991600;28;20026;-67
2023/05/16 07:11:48;;;;;;;15.45;2.25;;;13.40;90.50;;;;;;4991594;28;20030;-68
2023/05/16 07:14:14;;;;;;;13.73;1.65;;;13.40;90.20;;;;;;4991831;28;20019;-67
2023/05/16 07:16:40;;;;;;;11.18;2.13;;;13.40;89.40;;;;;;4990153;28;20364;-68
2023/05/16 07:19:05;;;;;;;15.10;2.63;;;13.30;89.70;;;;;;4991409;28;20109;-68
2023/05/16 07:21:31;;;;;;;17.67;2.13;;;13.20;90.00;;;;;;4991417;28;20074;-68
2023/05/16 07:23:57;;;;;;;15.48;2.13;;;13.20;89.20;;;;;;4991376;28;20453;-67
2023/05/16 07:26:22;;;;;;;11.82;1.73;;;13.00;89.90;;;;;;4991505;28;20019;-67
2023/05/16 07:28:51;;;;;;;14.13;1.60;;;13.30;89.50;;;;;;4973977;28;20398;-68
2023/05/16 07:31:17;;;;;;;9.00;1.70;;;13.30;88.90;;;;;;4973699;28;20051;-67
2023/05/16 07:33:44;;;;;;;13.40;1.60;;;13.40;88.30;;;;;;4990991;28;20459;-67
2023/05/16 07:36:10;;;;;;;14.25;1.50;;;13.50;88.00;;;;;;4974019;28;20030;-68
2023/05/16 07:38:35;;;;;;;6.63;1.58;;;13.90;88.50;;;;;;4991525;28;20089;-68
2023/05/16 07:41:01;;;;;;;15.45;1.73;;;14.30;87.60;;;;;;4990677;28;20045;-66
2023/05/16 07:43:27;;;;;;;11.75;1.70;;;14.50;85.90;;;;;;4990793;28;20168;-68
2023/05/16 07:45:54;;;;;;;11.65;1.63;;;14.30;84.60;;;;;;4989788;28;20345;-67
2023/05/16 07:48:20;;;;;;;11.63;2.05;;;14.60;85.70;;;;;;4991001;28;20034;-67
2023/05/16 07:50:46;;;;;;;13.40;2.45;;;14.80;84.20;;;;;;4990073;28;20121;-67
2023/05/16 07:53:12;;;;;;;9.00;1.50;;;14.80;83.90;;;;;;4990947;28;20114;-66
2023/05/16 07:55:37;;;;;;;9.60;2.05;;;14.90;82.70;;;;;;4990785;28;20026;-66
2023/05/16 07:58:03;;;;;;;14.02;1.20;;;14.90;83.20;;;;;;4990846;28;20041;-66
2023/05/16 08:00:29;;;;;;;12.35;2.17;;;15.10;82.80;;;;;;4991122;28;20069;-67
2023/05/16 08:02:55;;;;;;;4.65;1.30;;;15.40;82.40;;;;;;4990791;28;20026;-66
2023/05/16 08:05:22;;;;;;;8.82;1.33;;;15.50;80.30;;;;;;4991179;28;20101;-67
2023/05/16 08:07:47;;;;;;;10.43;1.40;;;15.50;80.20;;;;;;4989913;28;20182;-67
2023/05/16 08:10:13;;;;;;;11.93;2.45;;;16.00;79.70;;;;;;4989727;28;20043;-68
2023/05/16 08:12:39;;;;;;;7.75;1.50;;;16.60;79.80;;;;;;4990972;28;20038;-67
2023/05/16 08:15:05;;;;;;;7.40;1.42;;;16.80;77.40;;;;;;4990655;28;20096;-67
2023/05/16 08:17:31;;;;;;;7.80;1.70;;;16.90;74.80;;;;;;4991216;28;20018;-66
2023/05/16 08:19:58;;;;;;;9.00;1.40;;;16.90;76.20;;;;;;4990727;28;20031;-68
2023/05/16 08:22:24;;;;;;;16.42;1.52;;;16.60;74.70;;;;;;4990742;28;20107;-67
2023/05/16 08:24:50;;;;;;;5.90;1.55;;;15.80;75.50;;;;;;4989466;28;20035;-67
2023/05/16 08:27:15;;;;;;;12.60;1.85;;;16.20;77.30;;;;;;4990645;28;20031;-66
2023/05/16 08:29:41;;;;;;;5.57;1.35;;;16.40;76.60;;;;;;4991140;28;20175;-67
2023/05/16 08:32:09;;;;;;;7.30;2.05;;;17.30;76.50;;;;;;4990344;28;20299;-69
2023/05/16 08:34:35;;;;;;;10.02;1.63;;;18.70;73.60;;;;;;4990556;28;20031;-68
2023/05/16 08:37:01;;;;;;;7.60;2.25;;;19.80;71.70;;;;;;4990477;28;20341;-67
2023/05/16 08:39:29;;;;;;;4.03;1.08;;;20.50;68.00;;;;;;4989493;28;20526;-67
2023/05/16 08:41:55;;;;;;;7.25;1.30;;;19.80;65.70;;;;;;4990389;28;20515;-68
2023/05/16 08:44:20;;;;;;;7.88;1.48;;;19.40;65.70;;;;;;4973802;28;20106;-67
2023/05/16 08:46:53;;;;;;;4.95;1.70;;;19.00;66.20;;;;;;4990581;28;20178;-68
2023/05/16 08:49:20;;;;;;;7.15;1.60;;;21.00;66.90;;;;;;4990384;28;20369;-67
2023/05/16 08:51:47;;;;;;;6.00;1.17;;;21.90;62.40;;;;;;4990465;28;20479;-67
2023/05/16 08:54:14;;;;;;;8.27;1.33;;;22.50;61.40;;;;;;4993274;28;20038;-67
2023/05/16 08:56:43;;;;;;;9.43;1.70;;;23.90;59.20;;;;;;4977107;28;20022;-67
2023/05/16 08:59:13;;;;;;;5.70;1.40;;;23.20;54.50;;;;;;4993841;28;20062;-68
2023/05/16 09:01:40;;;;;;;6.90;1.48;;;22.70;58.10;;;;;;4993780;28;20035;-67
2023/05/16 09:04:08;;;;;;;9.75;1.75;;;23.30;56.50;;;;;;4993587;28;20060;-68
2023/05/16 09:06:36;;;;;;;7.35;1.10;;;23.10;56.60;;;;;;4993890;28;20050;-68
2023/05/16 09:09:03;;;;;;;8.00;1.20;;;23.90;53.50;;;;;;4993637;28;20048;-68
2023/05/16 09:11:29;;;;;;;3.10;1.13;;;23.90;51.30;;;;;;4994223;28;20121;-67
2023/05/16 09:13:55;;;;;;;7.10;1.48;;;23.30;50.40;;;;;;4993524;28;20034;-68
2023/05/16 09:16:21;;;;;;;7.07;1.30;;;23.30;52.00;;;;;;4993470;28;20054;-67
2023/05/16 09:18:54;;;;;;;5.38;1.10;;;22.50;51.90;;;;;;4976250;28;20413;-67
2023/05/16 09:21:20;;;;;;;8.10;1.73;;;21.20;53.20;;;;;;4993451;28;20122;-67
2023/05/16 09:23:48;;;;;;;5.10;1.45;;;21.80;54.90;;;;;;4993817;28;20109;-67
2023/05/16 09:26:15;;;;;;;7.82;1.25;;;22.00;53.00;;;;;;5012870;28;20064;-67
2023/05/16 09:28:41;;;;;;;4.18;1.50;;;21.60;53.60;;;;;;5012785;28;20022;-66
2023/05/16 09:31:21;;;;;;;5.82;1.50;;;22.30;52.70;;;;;;5012638;28;20045;-67
2023/05/16 09:33:48;;;;;;;9.02;1.45;;;23.20;49.90;;;;;;5012795;28;20512;-67
2023/05/16 09:36:15;;;;;;;7.47;2.08;;;22.80;49.40;;;;;;5012573;28;20089;-67
2023/05/16 09:38:40;;;;;;;3.85;1.25;;;23.40;49.10;;;;;;5013286;28;20029;-67
2023/05/16 09:41:09;;;;;;;4.95;1.60;;;23.80;49.50;;;;;;4995262;28;20360;-67
2023/05/16 09:43:38;;;;;;;6.72;1.40;;;23.70;49.40;;;;;;5012477;28;20030;-68
2023/05/16 09:46:04;;;;;;;5.65;1.40;;;23.30;49.60;;;;;;5012247;28;20244;-67
2023/05/16 09:48:31;;;;;;;4.63;1.17;;;22.30;50.20;;;;;;5012347;28;20121;-66
2023/05/16 09:51:01;;;;;;;9.13;2.23;;;21.20;50.90;;;;;;5012346;28;20030;-66
2023/05/16 09:53:29;;;;;;;6.43;1.60;;;21.00;50.20;;;;;;4995225;28;20302;-67
2023/05/16 09:56:00;;;;;;;4.55;0.90;;;21.40;52.00;;;;;;5012287;28;20101;-68
2023/05/16 09:58:31;;;;;;;5.97;1.33;;;21.90;50.50;;;;;;5011049;28;20503;-67
2023/05/16 10:00:58;;;;;;;9.07;1.42;;;22.00;50.10;;;;;;5012168;28;20040;-67
2023/05/16 10:03:27;;;;;;;7.68;1.60;;;21.80;49.70;;;;;;5012649;28;20045;-66
2023/05/16 10:05:53;;;;;;;6.85;1.30;;;20.20;50.60;;;;;;5011148;28;20383;-67
2023/05/16 10:08:24;;;;;;;5.72;1.23;;;19.60;51.80;;;;;;5012540;28;20022;-67
2023/05/16 10:10:53;;;;;;;9.00;3.10;;;19.40;52.40;;;;;;5012148;28;20036;-67
2023/05/16 10:13:28;;;;;;;13.57;4.55;;;19.40;52.10;;;;;;5012227;28;20090;-67
2023/05/16 10:15:58;;;;;;;5.20;1.15;;;19.00;53.70;;;;;;5012068;28;20118;-67
2023/05/16 10:18:29;;;;;;;5.15;1.08;;;19.20;53.50;;;;;;5012219;28;20261;-67
2023/05/16 10:20:57;;;;;;;7.25;1.23;;;19.10;53.50;;;;;;5010983;28;20026;-68
2023/05/16 10:23:25;;;;;;;10.57;1.83;;;19.00;53.40;;;;;;4992595;28;20026;-68
2023/05/16 10:25:51;;;;;;;;;;;18.80;53.30;;;;;;4975252;28;20114;-67
2023/05/16 10:28:17;;;;;;;5.43;1.13;;;18.30;53.30;;;;;;4992178;28;20352;-68
2023/05/16 10:30:46;;;;;;;7.78;1.25;;;17.50;53.70;;;;;;4991689;28;20042;-68
2023/05/16 10:33:17;;;;;;;5.53;1.27;;;17.50;54.60;;;;;;4992161;28;20034;-69
2023/05/16 10:35:43;;;;;;;5.35;1.10;;;17.60;54.90;;;;;;4992571;28;20026;-67
2023/05/16 10:38:11;;;;;;;8.65;1.27;;;17.60;54.40;;;;;;4992319;28;20074;-68
2023/05/16 10:40:38;;;;;;;7.93;1.65;;;17.80;53.90;;;;;;4992029;28;20114;-68
2023/05/16 10:43:06;;;;;;;3.60;1.15;;;18.00;52.90;;;;;;4974916;28;20125;-69
2023/05/16 10:45:32;;;;;;;6.25;0.90;;;17.90;52.80;;;;;;4991947;28;20116;-68
2023/05/16 10:48:07;;;;;;;3.10;0.73;;;18.20;51.70;;;;;;4991908;28;20368;-69
2023/05/16 10:50:44;;;;;;;5.95;1.00;;;18.30;51.00;;;;;;4992150;28;20037;-68
2023/05/16 10:53:20;;;;;;;8.00;1.20;;;18.30;51.60;;;;;;4991605;28;20472;-68
2023/05/16 10:55:59;;;;;;;11.90;2.13;;;18.00;52.10;;;;;;4991833;28;20052;-67
2023/05/16 10:58:39;;;;;;;3.65;0.80;;;17.50;53.20;;;;;;4991634;28;20026;-67
2023/05/16 11:01:32;;;;;;;2.72;1.20;;;17.50;53.40;;;;;;4991543;28;20114;-67
2023/05/16 11:04:00;;;;;;;5.10;1.52;;;18.10;53.20;;;;;;4990271;28;20042;-68
2023/05/16 11:06:41;;;;;;;11.48;2.15;;;18.50;53.30;;;;;;4991277;28;20099;-68
2023/05/16 11:09:10;;;;;;;11.32;1.70;;;18.60;52.30;;;;;;4991746;28;20053;-68
2023/05/16 11:11:52;;;;;;;6.22;1.27;;;18.40;52.20;;;;;;4990928;28;20121;-68
2023/05/16 11:14:33;;;;;;;7.30;1.50;;;18.70;52.30;;;;;;5010847;28;20057;-69
2023/05/16 11:17:05;;;;;;;8.10;1.58;;;18.70;52.00;;;;;;5010677;28;20526;-67
2023/05/16 11:19:44;;;;;;;4.03;1.05;;;18.60;51.90;;;;;;5010945;28;20038;-68
2023/05/16 11:22:22;;;;;;;7.32;1.20;;;18.50;51.80;;;;;;4993470;28;20033;-69
2023/05/16 11:25:05;;;;;;;8.13;1.10;;;17.90;51.30;;;;;;5010504;28;20030;-68
2023/05/16 11:27:40;;;;;;;6.18;1.05;;;18.20;52.30;;;;;;5009615;28;20025;-67
2023/05/16 11:30:05;;;;;;;6.70;0.93;;;18.20;52.50;;;;;;5010511;28;20122;-68
2023/05/16 11:32:38;;;;;;;8.57;1.08;;;17.90;52.60;;;;;;5011203;28;20128;-68
2023/05/16 11:35:07;;;;;;;10.18;1.20;;;17.90;53.00;;;;;;5010515;28;20034;-68
2023/05/16 11:37:40;;;;;;;7.10;1.70;;;18.20;53.90;;;;;;5010751;28;20033;-68
2023/05/16 11:40:10;;;;;;;9.02;1.17;;;18.30;55.30;;;;;;5010738;28;20038;-67
2023/05/16 11:42:44;;;;;;;9.23;2.40;;;18.40;55.20;;;;;;5010608;28;20041;-68
2023/05/16 11:45:14;;;;;;;4.28;1.10;;;18.50;55.20;;;;;;5010599;28;20046;-68
2023/05/16 11:47:43;;;;;;;4.32;1.10;;;18.40;53.90;;;;;;5011004;28;20026;-68
2023/05/16 11:50:17;;;;;;;4.40;1.13;;;18.20;54.60;;;;;;5009343;28;20617;-69
2023/05/16 11:52:45;;;;;;;7.47;1.00;;;18.30;54.70;;;;;;5009410;28;20479;-69
2023/05/16 11:55:12;;;;;;;2.95;1.23;;;18.00;55.30;;;;;;5010423;28;20044;-67
2023/05/16 11:57:38;;;;;;;3.20;0.93;;;18.20;55.00;;;;;;5009515;28;20367;-68
2023/05/16 12:00:18;;;;;;;6.78;1.60;;;18.00;54.80;;;;;;5010439;28;20099;-68
2023/05/16 12:02:59;;;;;;;11.13;1.30;;;18.30;54.70;;;;;;5010701;28;20018;-66
2023/05/16 12:05:25;;;;;;;7.10;1.40;;;18.40;54.40;;;;;;5010265;28;20379;-67
2023/05/16 12:07:54;;;;;;;4.85;1.30;;;18.70;54.90;;;;;;5010325;28;20481;-68
2023/05/16 12:10:20;;;;;;;4.78;1.40;;;18.80;55.20;;;;;;5010246;28;20066;-67
2023/05/16 12:12:50;;;;;;;8.50;1.50;;;18.70;54.60;;;;;;4992833;28;20121;-69
2023/05/16 12:15:16;;;;;;;7.43;1.10;;;18.70;54.50;;;;;;5010395;28;20108;-67
2023/05/16 12:17:42;;;;;;;4.07;1.25;;;18.50;54.70;;;;;;5010768;28;20094;-67
2023/05/16 12:20:13;;;;;;;5.25;1.02;;;18.20;54.20;;;;;;5010333;28;20030;-67
2023/05/16 12:22:43;;;;;;;5.13;1.17;;;18.00;53.50;;;;;;4992987;28;20285;-68
2023/05/16 12:25:28;;;;;;;2.63;1.10;;;17.70;53.90;;;;;;5010149;28;20034;-68
2023/05/16 12:27:56;;;;;;;6.35;1.05;;;17.80;54.70;;;;;;5011409;28;20042;-67
2023/05/16 12:30:23;;;;;;;;;;;18.00;54.40;;;;;;5013460;28;20034;-66
2023/05/16 12:32:54;;;;;;;3.92;1.00;;;18.00;54.70;;;;;;5014275;28;19916;-69
2023/05/16 12:35:20;;;;;;;6.80;1.08;;;18.10;55.30;;;;;;5014596;28;20317;-68
2023/05/16 12:37:46;;;;;;;4.10;0.95;;;18.30;55.00;;;;;;5013975;28;20045;-69
2023/05/16 12:40:12;;;;;;;7.40;1.23;;;18.40;55.10;;;;;;5014048;28;20025;-68
2023/05/16 12:42:37;;;;;;;10.30;1.73;;;18.60;55.90;;;;;;5013937;28;20033;-67
2023/05/16 12:45:04;;;;;;;7.03;1.48;;;18.70;56.00;;;;;;5013416;28;20034;-69
2023/05/16 12:47:37;;;;;;;8.95;1.65;;;18.40;56.30;;;;;;5014177;28;20077;-68